Hovedside
METAR-TAF:

METAR-TAF

Lufthavner :

Volgograd, Russland

breddegrad: 48-47N, lengdegrad: 044-22E, høyde over havet: 145 m

Gjeldene værobservasjon

Denne rapporten ble laget for 23 minutter siden, klokken 17:30 UTC
Vind 8 kt fra Sørøst
Temperatur 0°C
Luftfuktighet 100%
Trykk 1013 hPa
Sikt: 0150 m
underkjølt tåke

METAR: URWW 121730Z 14004MPS 0150 R06/0500N FZFG VV001 M00/M00 Q1013 R06/290050 NOSIG RMK QBB050 OBST OBSC

Tid: 20:53 (17:53 UTC)

Varsel

Denne rapporten ble laget for 54 minutter siden, klokken 16:59 UTC
Varsel gyldig fra 12. klokken 18 UTC til 13. klokken 03 UTC
Vind 10 kt fra Øst-sørøst med vindkast opp mot 19 kt
Sikt: 0300 m
Overskyet i en høyde av 200 ft
underkjølt tåke
Midlertidig
fra 12. klokken 18 UTC til 13. klokken 03 UTC
Vind 6 kt fra Øst med vindkast opp mot 16 kt
Sikt: 1000 m
(lett) frysende, duskregn, dis

TAF: URWW 121659Z 1218/1303 12005G10MPS 0300 FZFG OVC002 TEMPO 1218/1303 09003G08MPS 1000 -FZDZ BR

Værobservasjoner og værvarsel for over 4000 flyplasser (METAR- og TAF-rapporter).

Tilgjengelige stasjoner er representert av de røde og gule prikkene på kartet.

Hold musepekeren over prikken for å se navnet på stasjonen.

Klikk så for å se værobservasjoner og -varsler.

For å forandre kartet kan du klikke på den grønne knappen med svart kryss for å zoome inn, på den grønne knappen med strek for å zoome ut, eller på de grønne pilene for å se tilstøtende kart.


METAR-TAF: